Portada
METAR-TAF:

METAR-TAF

Aeropuertos :

Base Naval de Rota

Rota, España

latitud: 36-39N, longitud: 006-21W, altitud: 26 m

Observación

El informe se hizo hace 47 minutos, a las 13:00 UTC
Viento 6 kt del norte-noreste, variando entre norte y este-noreste
Temperatura 16°C
Humedad 51%
Presión 1030 hPa
Visibilidad 10 km o más
sin nubes por debajo de 1500 m y sin presencia de cumulonimbus.

METAR: LERT 031300Z 02006KT 350V070 CAVOK 16/06 Q1030 NOSIG

Hora: 14:47 (13:47 UTC)

Pronóstico

El informe se hizo hace 5 horas y 47 minutos, a las 08:00 UTC
Pronóstico válido del 03 a las 09 UTC al 04 a las 09 UTC
Viento 6 kt del noreste
Visibilidad 10 km o más
sin nubes por debajo de 1500 m y sin presencia de cumulonimbus.
Evolucionando progresivamente
del 03 a las 17 UTC al 03 a las 19 UTC
Viento 10 kt del este-sureste

TAF: LERT 030800Z 0309/0409 04006KT CAVOK TX18/0314Z TN04/0407Z BECMG 0317/0319 11010KT

Observaciones y pronósticos meteorológicos de más de 4000 aeropuertos (mensajes METAR y TAF).

Los puntos amarillos y rojos representan las estaciones disponibles.

Ponga el ratón en el punto deseado para ver el nombre de la estación.

Haga clic para ver las observaciones y los pronósticos meteorológicos.

Para cambiar el mapa : haga clic en los botones verdes con una cruz de color negro para hacer un zoom, en el botón verde con un guión para alejar o en las flechas verdes para mapas adyacentes.


METAR-TAF: